createdAt,value
2023-05-08T00:02:14.726Z,2.00
2023-05-08T00:04:41.459Z,1.60
2023-05-08T00:07:08.154Z,1.50
2023-05-08T00:09:34.927Z,1.50
2023-05-08T00:12:01.584Z,1.90
2023-05-08T00:14:28.244Z,1.50
2023-05-08T00:16:54.856Z,1.30
2023-05-08T00:19:21.551Z,1.40
2023-05-08T00:21:48.158Z,1.20
2023-05-08T00:24:14.807Z,1.50
2023-05-08T00:26:42.093Z,1.30
2023-05-08T00:29:08.770Z,1.20
2023-05-08T00:31:35.720Z,1.40
2023-05-08T00:34:02.714Z,1.50
2023-05-08T00:36:29.451Z,1.50
2023-05-08T00:38:56.109Z,1.40
2023-05-08T00:41:22.777Z,1.50
2023-05-08T00:43:49.386Z,1.40
2023-05-08T00:46:16.393Z,1.20
2023-05-08T00:48:45.765Z,1.10
2023-05-08T00:51:13.443Z,1.10
2023-05-08T00:53:43.319Z,1.10
2023-05-08T00:56:15.557Z,0.60
2023-05-08T01:01:09.996Z,1.10
2023-05-08T01:03:38.094Z,1.10
2023-05-08T01:06:05.308Z,1.00
2023-05-08T01:08:32.739Z,1.10
2023-05-08T01:11:15.647Z,1.20
2023-05-08T01:14:21.674Z,1.10
2023-05-08T01:17:15.803Z,1.00
2023-05-08T01:20:04.881Z,0.70
2023-05-08T01:22:49.993Z,1.00
2023-05-08T01:25:41.685Z,0.80
2023-05-08T01:28:33.189Z,1.20
2023-05-08T01:31:08.232Z,0.80
2023-05-08T01:33:48.579Z,1.10
2023-05-08T01:36:21.017Z,0.90
2023-05-08T01:39:29.616Z,0.90
2023-05-08T01:42:05.999Z,1.00
2023-05-08T01:44:41.516Z,0.70
2023-05-08T01:47:11.478Z,1.20
2023-05-08T01:49:46.440Z,1.10
2023-05-08T01:52:32.083Z,0.60
2023-05-08T01:55:11.264Z,1.00
2023-05-08T01:57:43.681Z,1.00
2023-05-08T02:00:11.823Z,1.40
2023-05-08T02:02:40.524Z,0.80
2023-05-08T02:05:09.628Z,0.90
2023-05-08T02:07:40.479Z,0.80
2023-05-08T02:10:09.034Z,1.20
2023-05-08T02:12:37.893Z,0.70
2023-05-08T02:15:07.943Z,0.80
2023-05-08T02:17:38.065Z,0.90
2023-05-08T02:20:05.854Z,1.00
2023-05-08T02:22:33.782Z,0.90
2023-05-08T02:25:01.736Z,1.00
2023-05-08T02:27:30.443Z,0.70
2023-05-08T02:29:58.552Z,0.80
2023-05-08T02:32:25.867Z,0.80
2023-05-08T02:35:02.965Z,0.80
2023-05-08T02:37:32.344Z,0.80
2023-05-08T02:39:59.448Z,0.70
2023-05-08T02:42:26.380Z,0.70
2023-05-08T02:44:53.110Z,0.70
2023-05-08T02:47:27.637Z,0.80
2023-05-08T02:50:09.785Z,1.00
2023-05-08T02:52:44.501Z,1.00
2023-05-08T02:55:36.391Z,0.70
2023-05-08T02:58:11.183Z,0.90
2023-05-08T03:00:43.633Z,0.80
2023-05-08T03:03:23.081Z,0.70
2023-05-08T03:05:53.916Z,0.80
2023-05-08T03:08:32.925Z,1.00
2023-05-08T03:11:04.211Z,0.80
2023-05-08T03:13:34.528Z,1.10
2023-05-08T03:16:04.687Z,0.80
2023-05-08T03:18:53.626Z,1.10
2023-05-08T03:21:21.672Z,0.80
2023-05-08T03:23:51.485Z,1.40
2023-05-08T03:26:22.432Z,1.30
2023-05-08T03:28:50.544Z,1.50
2023-05-08T03:31:23.247Z,1.40
2023-05-08T03:33:54.337Z,1.50
2023-05-08T03:36:22.651Z,1.50
2023-05-08T03:38:49.890Z,1.40
2023-05-08T03:41:17.071Z,1.60
2023-05-08T03:43:44.203Z,1.40
2023-05-08T03:46:12.184Z,1.30
2023-05-08T03:48:39.401Z,1.20
2023-05-08T03:51:06.632Z,1.00
2023-05-08T03:53:35.226Z,0.80
2023-05-08T03:56:03.444Z,1.10
2023-05-08T03:58:40.847Z,1.00
2023-05-08T04:01:18.505Z,1.10
2023-05-08T04:04:24.451Z,1.20
2023-05-08T04:07:10.666Z,1.20
2023-05-08T04:09:51.616Z,1.40
2023-05-08T04:12:22.256Z,1.30
2023-05-08T04:14:57.129Z,1.10
2023-05-08T04:17:53.759Z,1.30
2023-05-08T04:20:22.384Z,1.30
2023-05-08T04:22:52.705Z,1.50
2023-05-08T04:25:21.450Z,1.20
2023-05-08T04:27:51.428Z,1.10
2023-05-08T04:30:19.667Z,1.10
2023-05-08T04:32:47.696Z,1.10
2023-05-08T04:35:15.189Z,1.60
2023-05-08T04:37:45.692Z,1.10
2023-05-08T04:40:14.055Z,1.20
2023-05-08T04:42:43.579Z,1.40
2023-05-08T04:45:10.901Z,1.20
2023-05-08T04:47:37.902Z,1.30
2023-05-08T04:50:05.777Z,1.10
2023-05-08T04:52:33.632Z,1.50
2023-05-08T04:55:00.356Z,1.30
2023-05-08T04:57:27.478Z,1.50
2023-05-08T04:59:54.179Z,1.50
2023-05-08T05:02:21.012Z,1.30
2023-05-08T05:04:48.005Z,1.30
2023-05-08T05:07:15.718Z,2.10
2023-05-08T05:09:42.384Z,1.70
2023-05-08T05:12:09.956Z,1.50
2023-05-08T05:14:36.902Z,1.50
2023-05-08T05:17:04.545Z,1.60
2023-05-08T05:19:31.790Z,1.20
2023-05-08T05:21:58.471Z,1.40
2023-05-08T05:24:25.213Z,1.40
2023-05-08T05:26:52.053Z,1.70
2023-05-08T05:29:18.787Z,1.60
2023-05-08T05:31:45.616Z,1.40
2023-05-08T05:34:12.673Z,1.30
2023-05-08T05:36:40.133Z,1.80
2023-05-08T05:39:07.005Z,1.40
2023-05-08T05:41:34.519Z,1.40
2023-05-08T05:44:01.605Z,1.20
2023-05-08T05:46:32.602Z,1.20
2023-05-08T05:49:01.520Z,1.20
2023-05-08T05:51:29.528Z,1.30
2023-05-08T05:53:57.296Z,1.40
2023-05-08T05:56:24.523Z,1.50
2023-05-08T05:58:51.772Z,1.10
2023-05-08T06:01:18.476Z,1.30
2023-05-08T06:03:45.267Z,1.50
2023-05-08T06:06:12.542Z,1.30
2023-05-08T06:08:39.471Z,1.20
2023-05-08T06:11:06.277Z,1.30
2023-05-08T06:13:33.175Z,1.40
2023-05-08T06:16:00.422Z,1.50
2023-05-08T06:18:27.157Z,1.60
2023-05-08T06:20:58.333Z,1.30
2023-05-08T06:23:25.635Z,1.50
2023-05-08T06:25:52.652Z,1.40
2023-05-08T06:28:20.185Z,1.50
2023-05-08T06:30:46.855Z,2.20
2023-05-08T06:33:13.567Z,1.70
2023-05-08T06:35:40.330Z,1.60
2023-05-08T06:38:07.022Z,1.50
2023-05-08T06:40:33.767Z,1.70
2023-05-08T06:43:00.576Z,1.60
2023-05-08T06:45:27.243Z,1.40
2023-05-08T06:47:53.956Z,1.70
2023-05-08T06:50:20.906Z,1.30
2023-05-08T06:52:47.597Z,1.50
2023-05-08T06:55:14.479Z,1.40
2023-05-08T06:57:41.553Z,1.60
2023-05-08T07:00:09.939Z,2.50
2023-05-08T07:02:36.644Z,1.70
2023-05-08T07:05:03.599Z,1.90
2023-05-08T07:07:30.489Z,1.70
2023-05-08T07:09:57.186Z,1.70
2023-05-08T07:12:23.863Z,1.70
2023-05-08T07:14:50.595Z,1.80
2023-05-08T07:17:17.406Z,2.30
2023-05-08T07:19:44.019Z,2.20
2023-05-08T07:22:11.191Z,2.40
2023-05-08T07:24:37.829Z,2.20
2023-05-08T07:27:04.504Z,2.30
2023-05-08T07:29:31.187Z,2.40
2023-05-08T07:31:57.884Z,3.60
2023-05-08T07:34:24.679Z,15.60
2023-05-08T07:36:51.315Z,12.00
2023-05-08T07:39:17.933Z,3.10
2023-05-08T07:41:46.766Z,2.50
2023-05-08T07:44:15.066Z,4.90
2023-05-08T07:46:41.875Z,9.20
2023-05-08T07:49:08.650Z,4.20
2023-05-08T07:51:36.779Z,3.60
2023-05-08T07:54:03.366Z,2.70
2023-05-08T07:56:30.017Z,2.60
2023-05-08T07:58:56.788Z,3.20
2023-05-08T08:01:23.431Z,3.00
2023-05-08T08:03:50.198Z,3.00
2023-05-08T08:06:18.722Z,3.10
2023-05-08T08:08:45.427Z,3.30
2023-05-08T08:11:12.087Z,2.70
2023-05-08T08:13:38.692Z,2.90
2023-05-08T08:16:06.377Z,3.30
2023-05-08T08:18:36.835Z,3.70
2023-05-08T08:21:07.617Z,4.10
2023-05-08T08:23:34.777Z,22.60
2023-05-08T08:26:01.544Z,5.90
2023-05-08T08:28:28.384Z,22.80
2023-05-08T08:30:55.203Z,9.30
2023-05-08T08:33:21.899Z,5.80
2023-05-08T08:35:48.586Z,5.40
2023-05-08T08:38:15.697Z,8.50
2023-05-08T08:40:42.654Z,6.80
2023-05-08T08:43:10.150Z,6.50
2023-05-08T08:45:37.576Z,5.60
2023-05-08T08:48:05.469Z,5.40
2023-05-08T08:50:33.352Z,5.20
2023-05-08T08:53:25.873Z,5.30
2023-05-08T08:55:56.068Z,5.10
2023-05-08T08:58:39.117Z,5.80
2023-05-08T09:01:09.544Z,5.70
2023-05-08T09:03:36.442Z,5.10
2023-05-08T09:06:03.540Z,11.60
2023-05-08T09:08:30.918Z,5.80
2023-05-08T09:10:57.550Z,6.60
2023-05-08T09:13:24.244Z,6.00
2023-05-08T09:15:51.267Z,6.90
2023-05-08T09:18:19.404Z,12.70
2023-05-08T09:20:46.566Z,6.80
2023-05-08T09:23:14.889Z,5.70
2023-05-08T09:25:49.173Z,5.30
2023-05-08T09:28:21.279Z,5.90
2023-05-08T09:30:59.317Z,6.00
2023-05-08T09:33:28.271Z,6.50
2023-05-08T09:35:56.284Z,5.90
2023-05-08T09:38:40.111Z,6.10
2023-05-08T09:41:08.706Z,5.90
2023-05-08T09:43:35.590Z,6.20
2023-05-08T09:46:25.729Z,5.50
2023-05-08T09:48:54.778Z,6.30
2023-05-08T09:51:22.817Z,6.20
2023-05-08T09:53:53.952Z,6.20
2023-05-08T09:56:50.280Z,6.50
2023-05-08T09:59:28.217Z,5.80
2023-05-08T10:01:58.213Z,6.00
2023-05-08T10:04:32.602Z,6.00
2023-05-08T10:06:59.272Z,6.20
2023-05-08T10:09:27.366Z,5.00
2023-05-08T10:11:57.481Z,6.00
2023-05-08T10:14:25.043Z,6.30
2023-05-08T10:16:54.164Z,6.10
2023-05-08T10:19:28.251Z,5.90
2023-05-08T10:21:56.355Z,5.40
2023-05-08T10:24:33.665Z,5.30
2023-05-08T10:27:17.589Z,5.00
2023-05-08T10:29:55.665Z,4.80
2023-05-08T10:34:53.888Z,4.60
2023-05-08T10:37:20.966Z,3.70
2023-05-08T10:39:48.345Z,3.30
2023-05-08T10:42:15.424Z,2.60
2023-05-08T10:44:42.282Z,2.60
2023-05-08T10:47:27.923Z,2.40
2023-05-08T10:50:11.180Z,1.90
2023-05-08T10:52:50.775Z,2.50
2023-05-08T10:55:20.386Z,2.50
2023-05-08T10:58:22.495Z,2.30
2023-05-08T11:03:30.745Z,2.70
2023-05-08T11:06:00.196Z,2.60
2023-05-08T11:08:28.814Z,4.80
2023-05-08T11:11:02.142Z,2.30
2023-05-08T11:13:35.960Z,2.10
2023-05-08T11:16:03.768Z,2.30
2023-05-08T11:18:45.821Z,3.00
2023-05-08T11:21:23.529Z,2.30
2023-05-08T11:23:58.028Z,2.70
2023-05-08T11:26:42.584Z,4.00
2023-05-08T11:29:18.269Z,3.50
2023-05-08T11:31:52.226Z,4.70
2023-05-08T11:34:44.038Z,2.30
2023-05-08T11:37:11.507Z,2.90
2023-05-08T11:39:38.162Z,5.30
2023-05-08T11:42:29.659Z,2.90
2023-05-08T11:45:10.833Z,3.60
2023-05-08T11:47:46.238Z,3.20
2023-05-08T11:50:14.346Z,2.70
2023-05-08T11:52:43.269Z,2.50
2023-05-08T11:55:12.160Z,2.50
2023-05-08T11:57:38.881Z,2.50
2023-05-08T12:00:10.916Z,2.40
2023-05-08T12:05:10.446Z,2.40
2023-05-08T12:07:47.299Z,2.50
2023-05-08T12:10:15.907Z,2.30
2023-05-08T12:12:44.663Z,3.40
2023-05-08T12:15:15.587Z,7.50
2023-05-08T12:17:43.933Z,4.20
2023-05-08T12:20:13.747Z,9.40
2023-05-08T12:22:41.709Z,3.50
2023-05-08T12:25:12.099Z,3.70
2023-05-08T12:27:39.609Z,4.20
2023-05-08T12:30:08.775Z,3.70
2023-05-08T12:32:43.290Z,3.30
2023-05-08T12:35:11.646Z,4.10
2023-05-08T12:37:38.422Z,3.80
2023-05-08T12:40:08.529Z,4.60
2023-05-08T12:42:51.178Z,10.40
2023-05-08T12:45:22.700Z,11.00
2023-05-08T12:47:50.955Z,4.30
2023-05-08T12:50:21.228Z,4.00
2023-05-08T12:52:51.292Z,4.30
2023-05-08T12:55:26.003Z,4.60
2023-05-08T12:58:15.282Z,4.00
2023-05-08T13:00:44.907Z,4.20
2023-05-08T13:03:13.585Z,4.40
2023-05-08T13:05:45.865Z,8.00
2023-05-08T13:10:52.190Z,5.10
2023-05-08T13:13:22.207Z,4.40
2023-05-08T13:15:50.583Z,5.10
2023-05-08T13:18:18.427Z,5.40
2023-05-08T13:20:46.216Z,5.30
2023-05-08T13:23:13.831Z,5.00
2023-05-08T13:25:41.446Z,4.70
2023-05-08T13:28:09.652Z,4.90
2023-05-08T13:30:37.127Z,4.90
2023-05-08T13:33:04.737Z,5.60
2023-05-08T13:35:33.000Z,4.80
2023-05-08T13:38:00.034Z,5.00
2023-05-08T13:40:27.513Z,5.00
2023-05-08T13:42:54.391Z,5.00
2023-05-08T13:45:21.099Z,4.90
2023-05-08T13:47:49.332Z,4.90
2023-05-08T13:50:18.520Z,4.60
2023-05-08T13:52:45.162Z,4.70
2023-05-08T13:55:13.840Z,4.50
2023-05-08T13:57:41.714Z,4.90
2023-05-08T14:00:09.938Z,4.70
2023-05-08T14:02:37.937Z,5.30
2023-05-08T14:05:05.702Z,4.30
2023-05-08T14:07:32.331Z,3.80
2023-05-08T14:09:59.096Z,3.70
2023-05-08T14:12:25.810Z,4.10
2023-05-08T14:14:52.474Z,3.80
2023-05-08T14:17:19.113Z,3.80
2023-05-08T14:19:48.342Z,3.70
2023-05-08T14:22:15.010Z,3.50
2023-05-08T14:24:41.670Z,3.50
2023-05-08T14:27:08.455Z,3.90
2023-05-08T14:29:35.411Z,4.00
2023-05-08T14:32:02.362Z,3.50
2023-05-08T14:34:29.476Z,3.70
2023-05-08T14:36:56.256Z,4.20
2023-05-08T14:39:23.145Z,4.20
2023-05-08T14:42:21.995Z,4.50
2023-05-08T14:44:49.912Z,4.40
2023-05-08T14:47:16.868Z,4.50
2023-05-08T14:49:43.528Z,4.80
2023-05-08T14:52:10.130Z,5.00
2023-05-08T14:54:37.003Z,4.70
2023-05-08T14:57:03.981Z,5.60
2023-05-08T14:59:30.729Z,5.50
2023-05-08T15:01:57.416Z,3.40
2023-05-08T15:04:24.118Z,3.40
2023-05-08T15:06:50.941Z,3.20
2023-05-08T15:09:17.643Z,3.20
2023-05-08T15:11:44.714Z,3.30
2023-05-08T15:14:11.524Z,3.20
2023-05-08T15:16:38.309Z,3.70
2023-05-08T15:19:05.028Z,3.50
2023-05-08T15:21:31.674Z,3.60
2023-05-08T15:23:58.318Z,3.00
2023-05-08T15:26:25.005Z,3.70
2023-05-08T15:28:51.723Z,3.30
2023-05-08T15:31:18.656Z,3.30
2023-05-08T15:33:46.060Z,3.00
2023-05-08T15:36:14.000Z,3.60
2023-05-08T15:38:41.767Z,3.90
2023-05-08T15:41:14.604Z,3.70
2023-05-08T15:43:45.277Z,4.00
2023-05-08T15:46:12.145Z,3.40
2023-05-08T15:48:39.065Z,3.60
2023-05-08T15:51:06.390Z,3.80
2023-05-08T15:53:34.190Z,3.70
2023-05-08T15:56:00.832Z,3.70
2023-05-08T15:58:27.693Z,3.20
2023-05-08T16:00:54.744Z,3.30
2023-05-08T16:03:21.662Z,3.10
2023-05-08T16:05:48.678Z,3.60
2023-05-08T16:08:15.280Z,3.40
2023-05-08T16:10:42.287Z,3.50
2023-05-08T16:13:09.651Z,3.30
2023-05-08T16:15:36.654Z,3.30
2023-05-08T16:18:03.792Z,3.80
2023-05-08T16:20:32.820Z,3.60
2023-05-08T16:23:00.208Z,3.10
2023-05-08T16:25:26.796Z,3.50
2023-05-08T16:27:53.598Z,3.40
2023-05-08T16:30:20.375Z,3.20
2023-05-08T16:32:47.144Z,3.30
2023-05-08T16:35:14.630Z,3.50
2023-05-08T16:37:42.030Z,3.30
2023-05-08T16:40:09.852Z,3.20
2023-05-08T16:42:37.238Z,3.40
2023-05-08T16:45:08.378Z,3.50
2023-05-08T16:47:35.323Z,3.50
2023-05-08T16:50:02.213Z,3.70
2023-05-08T16:52:29.007Z,3.30
2023-05-08T16:54:55.657Z,3.50
2023-05-08T16:57:22.478Z,4.00
2023-05-08T16:59:49.272Z,3.20
2023-05-08T17:02:19.210Z,3.30
2023-05-08T17:04:47.467Z,3.60
2023-05-08T17:07:14.888Z,3.50
2023-05-08T17:09:41.681Z,3.40
2023-05-08T17:12:08.939Z,3.20
2023-05-08T17:14:37.048Z,3.40
2023-05-08T17:17:03.731Z,4.20
2023-05-08T17:19:30.570Z,3.90
2023-05-08T17:21:59.608Z,4.00
2023-05-08T17:24:26.770Z,3.50
2023-05-08T17:26:53.492Z,3.30
2023-05-08T17:29:20.079Z,3.80
2023-05-08T17:31:46.757Z,3.90
2023-05-08T17:34:13.657Z,4.30
2023-05-08T17:36:40.568Z,3.80
2023-05-08T17:39:07.423Z,3.60
2023-05-08T17:41:34.064Z,3.70
2023-05-08T17:44:00.702Z,3.80
2023-05-08T17:46:27.416Z,3.70
2023-05-08T17:48:54.091Z,3.40
2023-05-08T17:51:20.696Z,3.90
2023-05-08T17:53:47.329Z,3.60
2023-05-08T17:56:15.661Z,3.50
2023-05-08T17:58:43.606Z,3.70
2023-05-08T18:01:10.383Z,3.40
2023-05-08T18:03:37.118Z,4.00
2023-05-08T18:06:03.741Z,3.60
2023-05-08T18:08:30.506Z,3.80
2023-05-08T18:10:57.180Z,4.00
2023-05-08T18:13:23.904Z,3.90
2023-05-08T18:15:50.861Z,3.90
2023-05-08T18:18:17.558Z,4.10
2023-05-08T18:20:44.210Z,4.30
2023-05-08T18:23:10.889Z,4.30
2023-05-08T18:25:37.584Z,4.30
2023-05-08T18:28:04.383Z,4.60
2023-05-08T18:30:31.650Z,4.40
2023-05-08T18:32:58.440Z,4.40
2023-05-08T18:35:25.213Z,4.50
2023-05-08T18:37:51.959Z,4.20
2023-05-08T18:40:18.564Z,3.70
2023-05-08T18:42:45.196Z,4.00
2023-05-08T18:45:12.279Z,4.80
2023-05-08T18:47:39.049Z,4.10
2023-05-08T18:50:06.463Z,3.90
2023-05-08T18:52:33.237Z,3.90
2023-05-08T18:54:59.885Z,4.00
2023-05-08T18:57:26.533Z,3.90
2023-05-08T18:59:53.220Z,3.80
2023-05-08T19:02:19.948Z,3.40
2023-05-08T19:04:46.622Z,4.10
2023-05-08T19:07:13.223Z,4.00
2023-05-08T19:09:40.016Z,3.90
2023-05-08T19:12:06.689Z,4.00
2023-05-08T19:14:33.405Z,3.50
2023-05-08T19:17:00.174Z,3.40
2023-05-08T19:19:27.643Z,3.50
2023-05-08T19:21:54.326Z,3.30
2023-05-08T19:24:24.188Z,3.90
2023-05-08T19:26:50.889Z,3.80
2023-05-08T19:29:17.608Z,3.70
2023-05-08T19:31:44.300Z,3.80
2023-05-08T19:34:10.954Z,4.20
2023-05-08T19:36:37.910Z,4.00
2023-05-08T19:39:04.755Z,3.80
2023-05-08T19:41:31.532Z,4.00
2023-05-08T19:43:58.777Z,4.00
2023-05-08T19:46:26.585Z,4.30
2023-05-08T19:48:54.588Z,4.00
2023-05-08T19:51:21.603Z,4.20
2023-05-08T19:53:50.034Z,4.20
2023-05-08T19:56:20.597Z,4.00
2023-05-08T19:58:54.208Z,4.50
2023-05-08T20:01:21.406Z,4.40
2023-05-08T20:03:50.919Z,4.30
2023-05-08T20:06:21.745Z,4.20
2023-05-08T20:11:30.996Z,4.00
2023-05-08T20:13:57.863Z,4.30
2023-05-08T20:16:25.283Z,4.40
2023-05-08T20:18:56.949Z,4.20
2023-05-08T20:21:23.900Z,4.50
2023-05-08T20:23:50.925Z,4.40
2023-05-08T20:26:17.712Z,4.30
2023-05-08T20:28:45.966Z,4.80
2023-05-08T20:31:13.006Z,4.30
2023-05-08T20:33:40.159Z,4.50
2023-05-08T20:36:07.005Z,4.80
2023-05-08T20:38:33.833Z,4.70
2023-05-08T20:41:01.326Z,5.00
2023-05-08T20:43:28.508Z,4.80
2023-05-08T20:45:55.254Z,4.70
2023-05-08T20:48:22.031Z,3.90
2023-05-08T20:50:49.013Z,3.70
2023-05-08T20:53:15.850Z,3.90
2023-05-08T20:55:42.528Z,3.90
2023-05-08T20:58:09.242Z,4.20
2023-05-08T21:00:36.178Z,4.30
2023-05-08T21:03:03.381Z,4.80
2023-05-08T21:05:30.076Z,4.10
2023-05-08T21:08:00.141Z,4.10
2023-05-08T21:10:29.163Z,4.60
2023-05-08T21:12:55.917Z,4.40
2023-05-08T21:15:22.634Z,4.00
2023-05-08T21:17:50.612Z,4.60
2023-05-08T21:20:17.424Z,4.40
2023-05-08T21:22:46.221Z,4.60
2023-05-08T21:25:17.126Z,3.90
2023-05-08T21:27:43.865Z,4.20
2023-05-08T21:30:15.533Z,4.30
2023-05-08T21:32:46.053Z,4.40
2023-05-08T21:35:13.728Z,4.20
2023-05-08T21:37:40.729Z,4.40
2023-05-08T21:40:08.482Z,4.60
2023-05-08T21:42:35.196Z,4.50
2023-05-08T21:45:01.949Z,4.70
2023-05-08T21:47:28.663Z,4.60
2023-05-08T21:49:55.599Z,4.10
2023-05-08T21:52:22.893Z,5.30
2023-05-08T21:54:50.375Z,4.70
2023-05-08T21:57:17.080Z,4.80
2023-05-08T21:59:43.794Z,4.30
2023-05-08T22:02:11.214Z,4.20
2023-05-08T22:04:37.873Z,4.20
2023-05-08T22:07:04.554Z,4.30
2023-05-08T22:09:31.394Z,4.40
2023-05-08T22:11:58.058Z,4.10
2023-05-08T22:14:24.670Z,4.10
2023-05-08T22:16:51.390Z,4.30
2023-05-08T22:19:18.098Z,4.10
2023-05-08T22:21:44.761Z,4.10
2023-05-08T22:24:11.397Z,3.80
2023-05-08T22:26:38.051Z,3.90
2023-05-08T22:29:04.721Z,4.00
2023-05-08T22:31:31.386Z,3.80
2023-05-08T22:33:58.565Z,3.50
2023-05-08T22:36:25.202Z,3.70
2023-05-08T22:38:52.362Z,3.50
2023-05-08T22:41:19.247Z,4.00
2023-05-08T22:43:45.959Z,3.60
2023-05-08T22:46:12.659Z,3.60
2023-05-08T22:48:39.478Z,3.60
2023-05-08T22:51:06.627Z,3.70
2023-05-08T22:53:33.256Z,3.60
2023-05-08T22:55:59.869Z,2.90
2023-05-08T22:58:27.385Z,3.50
2023-05-08T23:00:54.101Z,3.50
2023-05-08T23:03:20.985Z,3.00
2023-05-08T23:05:48.884Z,3.00
2023-05-08T23:08:15.469Z,2.50
2023-05-08T23:10:42.156Z,2.60
2023-05-08T23:13:08.863Z,2.80
2023-05-08T23:15:36.636Z,2.50
2023-05-08T23:18:03.347Z,2.80
2023-05-08T23:20:30.028Z,2.60
2023-05-08T23:22:56.749Z,2.60
2023-05-08T23:25:23.496Z,2.70
2023-05-08T23:27:50.189Z,2.60
2023-05-08T23:30:17.051Z,2.90
2023-05-08T23:32:44.724Z,3.20
2023-05-08T23:35:12.110Z,2.80
2023-05-08T23:37:38.933Z,3.00
2023-05-08T23:40:07.152Z,2.70
2023-05-08T23:42:33.784Z,2.80
2023-05-08T23:45:00.549Z,3.20
2023-05-08T23:47:27.260Z,2.70
2023-05-08T23:49:53.938Z,3.00
2023-05-08T23:52:20.792Z,3.00
2023-05-08T23:54:47.423Z,2.80
2023-05-08T23:57:14.113Z,3.00
2023-05-08T23:59:40.738Z,2.60
